Time;durP1;ratioP1;P1;durP2;ratioP2;P2;SDS_P1;SDS_P2;PMS_P1;PMS_P2;Temp;Humidity;BMP_temperature;BMP_pressure;BME280_temperature;BME280_humidity;BME280_pressure;Samples;Min_cycle;Max_cycle;Signal;HPM_P1;HPM_P2
2023/07/15 00:01:32;;;;;;;5.20;3.60;;;27.80;50.60;;;;;;5044880;28;20466;-79
2023/07/15 00:04:00;;;;;;;4.40;3.27;;;27.80;50.60;;;;;;5047808;28;20425;-77
2023/07/15 00:06:30;;;;;;;4.63;4.23;;;27.70;50.50;;;;;;5044415;28;20454;-78
2023/07/15 00:08:58;;;;;;;8.73;3.63;;;27.80;50.40;;;;;;5051175;28;20529;-77
2023/07/15 00:11:28;;;;;;;3.80;3.50;;;27.80;50.30;;;;;;5043887;28;20538;-80
2023/07/15 00:13:56;;;;;;;5.40;3.60;;;27.80;50.30;;;;;;5045217;28;20553;-78
2023/07/15 00:16:24;;;;;;;4.67;4.20;;;27.80;50.20;;;;;;5043680;28;20464;-78
2023/07/15 00:18:52;;;;;;;4.40;4.00;;;27.80;50.20;;;;;;5051519;28;20451;-78
2023/07/15 00:21:22;;;;;;;4.40;4.10;;;27.80;50.20;;;;;;5048867;28;20449;-78
2023/07/15 00:23:55;;;;;;;4.33;3.80;;;27.80;50.10;;;;;;5041178;28;20421;-77
2023/07/15 00:26:24;;;;;;;6.40;5.67;;;27.80;50.20;;;;;;5051540;28;20437;-77
2023/07/15 00:28:52;;;;;;;6.37;5.77;;;27.80;50.10;;;;;;5051137;28;20534;-77
2023/07/15 00:31:23;;;;;;;19.53;11.43;;;27.80;50.00;;;;;;5044912;28;20536;-78
2023/07/15 00:33:51;;;;;;;10.83;9.07;;;27.80;50.00;;;;;;5051275;28;20417;-77
2023/07/15 00:36:19;;;;;;;10.33;7.50;;;27.80;50.00;;;;;;5045931;28;20486;-76
2023/07/15 00:38:48;;;;;;;10.97;8.37;;;27.80;49.90;;;;;;5044872;28;21054;-77
2023/07/15 00:41:20;;;;;;;10.87;9.60;;;27.80;49.90;;;;;;5041646;28;20521;-76
2023/07/15 00:43:54;;;;;;;16.20;12.90;;;27.80;49.80;;;;;;5051398;28;20485;-76
2023/07/15 00:46:52;;;;;;;14.30;11.70;;;27.70;49.70;;;;;;5043411;28;20449;-77
2023/07/15 00:49:21;;;;;;;16.47;9.80;;;27.80;49.90;;;;;;5047938;28;20434;-76
2023/07/15 00:51:50;;;;;;;13.83;10.70;;;27.70;49.80;;;;;;5043891;28;20466;-76
2023/07/15 00:54:18;;;;;;;14.90;10.60;;;27.70;49.80;;;;;;5050859;28;20453;-77
2023/07/15 00:56:48;;;;;;;14.03;11.40;;;27.70;49.70;;;;;;5042451;28;20790;-77
2023/07/15 00:59:16;;;;;;;14.43;12.03;;;27.70;49.80;;;;;;5050895;28;20500;-78
2023/07/15 01:01:46;;;;;;;13.40;11.70;;;27.70;49.70;;;;;;5050882;28;20449;-76
2023/07/15 01:04:14;;;;;;;11.97;10.70;;;27.70;49.70;;;;;;5045616;28;20857;-79
2023/07/15 01:06:45;;;;;;;13.60;11.80;;;27.70;49.70;;;;;;5050765;28;20454;-76
2023/07/15 01:09:13;;;;;;;16.33;13.17;;;27.70;49.70;;;;;;5034150;28;20505;-77
2023/07/15 01:11:41;;;;;;;16.17;12.27;;;27.70;49.60;;;;;;5035124;28;20497;-78
2023/07/15 01:14:12;;;;;;;14.20;11.80;;;27.70;49.60;;;;;;5030513;28;20436;-80
2023/07/15 01:16:40;;;;;;;14.27;12.33;;;27.70;49.60;;;;;;5030721;28;20448;-78
2023/07/15 01:19:09;;;;;;;15.60;12.60;;;27.70;49.60;;;;;;5047608;28;20496;-79
2023/07/15 01:21:37;;;;;;;14.27;11.73;;;27.70;49.40;;;;;;5045713;28;20514;-78
2023/07/15 01:24:07;;;;;;;14.57;11.70;;;27.60;50.00;;;;;;5030757;28;20448;-78
2023/07/15 01:26:36;;;;;;;13.43;11.70;;;27.60;49.40;;;;;;5040747;28;20495;-80
2023/07/15 01:29:03;;;;;;;18.10;14.50;;;27.60;49.40;;;;;;5049929;28;20528;-81
2023/07/15 01:31:32;;;;;;;15.30;12.37;;;27.60;50.00;;;;;;5050296;28;20477;-78
2023/07/15 01:34:00;;;;;;;15.50;12.30;;;27.60;49.30;;;;;;5050605;28;20500;-78
2023/07/15 01:36:28;;;;;;;14.80;11.80;;;27.60;49.40;;;;;;5053783;28;20729;-76
2023/07/15 01:38:56;;;;;;;14.90;12.37;;;27.60;49.20;;;;;;5054352;28;20462;-77
2023/07/15 01:41:25;;;;;;;16.07;12.57;;;27.50;49.20;;;;;;5052742;28;20500;-77
2023/07/15 01:43:53;;;;;;;13.20;10.97;;;27.60;49.40;;;;;;5047859;28;20547;-77
2023/07/15 01:46:21;;;;;;;13.00;11.23;;;27.60;49.20;;;;;;5033908;28;20554;-77
2023/07/15 01:48:49;;;;;;;15.43;12.00;;;27.50;49.20;;;;;;5048452;28;20454;-77
2023/07/15 01:51:17;;;;;;;17.40;13.20;;;27.50;49.30;;;;;;5049733;28;20475;-77
2023/07/15 01:53:46;;;;;;;13.60;12.10;;;27.50;49.30;;;;;;5034397;28;20440;-77
2023/07/15 01:56:14;;;;;;;15.90;13.20;;;27.50;49.10;;;;;;5051401;28;20554;-77
2023/07/15 01:58:44;;;;;;;14.60;12.20;;;27.50;49.10;;;;;;5054254;28;20425;-77
2023/07/15 02:01:12;;;;;;;13.87;12.20;;;27.50;49.00;;;;;;5065350;28;20458;-77
2023/07/15 02:03:40;;;;;;;13.80;11.50;;;27.50;49.10;;;;;;5065322;28;20519;-77
2023/07/15 02:06:08;;;;;;;15.40;12.07;;;27.50;49.10;;;;;;5039403;28;20442;-77
2023/07/15 02:08:36;;;;;;;14.90;11.83;;;27.50;49.00;;;;;;5045533;28;20930;-77
2023/07/15 02:11:04;;;;;;;15.57;12.70;;;27.50;49.00;;;;;;5053449;28;20517;-77
2023/07/15 02:13:32;;;;;;;14.10;12.23;;;27.50;49.10;;;;;;5053511;28;20445;-78
2023/07/15 02:16:02;;;;;;;13.73;11.43;;;27.40;48.90;;;;;;5053230;28;20441;-77
2023/07/15 02:18:30;;;;;;;13.93;11.50;;;27.40;49.00;;;;;;5053438;28;20417;-77
2023/07/15 02:20:58;;;;;;;13.33;11.83;;;27.40;48.90;;;;;;5053575;28;20488;-76
2023/07/15 02:23:27;;;;;;;13.43;11.57;;;27.40;49.00;;;;;;5051065;28;20481;-77
2023/07/15 02:25:55;;;;;;;13.50;11.30;;;27.40;48.90;;;;;;5046197;28;20470;-77
2023/07/15 02:28:26;;;;;;;14.90;10.90;;;27.40;48.80;;;;;;5043222;28;20522;-78
2023/07/15 02:30:55;;;;;;;16.50;11.70;;;27.40;48.90;;;;;;5048166;28;20480;-77
2023/07/15 02:33:25;;;;;;;15.30;12.53;;;27.40;48.80;;;;;;5044939;28;20446;-77
2023/07/15 02:35:53;;;;;;;14.37;12.03;;;27.40;48.80;;;;;;5047077;28;20479;-77
2023/07/15 02:38:21;;;;;;;13.27;11.17;;;27.30;48.80;;;;;;5053415;28;20482;-77
2023/07/15 02:40:50;;;;;;;13.57;11.20;;;27.30;48.80;;;;;;5056085;28;20444;-76
2023/07/15 02:43:19;;;;;;;12.70;11.00;;;27.30;48.60;;;;;;5051238;28;20462;-77
2023/07/15 02:45:48;;;;;;;11.87;10.60;;;27.30;48.70;;;;;;5056774;28;20500;-77
2023/07/15 02:48:16;;;;;;;12.37;10.03;;;27.30;48.70;;;;;;5045251;28;20474;-77
2023/07/15 02:50:45;;;;;;;13.60;10.00;;;27.30;48.60;;;;;;5040579;28;20432;-77
2023/07/15 02:53:13;;;;;;;11.67;10.00;;;27.30;48.60;;;;;;5032734;28;20530;-78
2023/07/15 02:55:41;;;;;;;11.57;9.40;;;27.30;48.70;;;;;;5032939;28;20870;-77
2023/07/15 02:58:09;;;;;;;11.00;9.90;;;27.30;48.60;;;;;;5042971;28;20429;-77
2023/07/15 03:00:37;;;;;;;10.67;8.90;;;27.30;48.50;;;;;;5049706;28;21037;-77
2023/07/15 03:03:07;;;;;;;10.77;9.50;;;27.30;48.50;;;;;;5039972;28;20904;-77
2023/07/15 03:05:35;;;;;;;11.40;9.40;;;27.30;48.50;;;;;;5045892;28;20499;-77
2023/07/15 03:08:05;;;;;;;11.10;9.33;;;27.30;48.40;;;;;;5045704;28;20513;-77
2023/07/15 03:10:33;;;;;;;10.10;9.10;;;27.30;48.30;;;;;;5042714;28;20428;-77
2023/07/15 03:13:01;;;;;;;13.20;9.20;;;27.30;48.30;;;;;;5052135;28;20562;-77
2023/07/15 03:15:30;;;;;;;9.90;8.60;;;27.30;48.30;;;;;;5047578;28;20429;-77
2023/07/15 03:17:58;;;;;;;9.43;8.43;;;27.30;48.30;;;;;;5037995;28;20514;-77
2023/07/15 03:20:26;;;;;;;13.23;8.87;;;27.20;48.10;;;;;;5036081;28;20816;-77
2023/07/15 03:22:54;;;;;;;10.17;8.10;;;27.20;48.20;;;;;;5032756;28;20432;-78
2023/07/15 03:25:24;;;;;;;9.27;7.97;;;27.20;48.20;;;;;;5050052;28;20438;-77
2023/07/15 03:27:52;;;;;;;8.50;7.60;;;27.20;48.40;;;;;;5052119;28;20485;-77
2023/07/15 03:30:19;;;;;;;9.33;8.33;;;27.20;48.10;;;;;;5052262;28;20437;-78
2023/07/15 03:32:48;;;;;;;10.03;8.20;;;27.20;48.00;;;;;;5041940;28;20503;-77
2023/07/15 03:35:15;;;;;;;8.20;7.40;;;27.20;48.10;;;;;;5040675;28;20443;-77
2023/07/15 03:37:44;;;;;;;10.07;7.47;;;27.20;48.00;;;;;;5032252;28;20469;-76
2023/07/15 03:40:12;;;;;;;8.30;7.40;;;27.20;47.90;;;;;;5032150;28;20448;-77
2023/07/15 03:42:42;;;;;;;7.80;6.97;;;27.20;47.90;;;;;;5035024;28;20427;-77
2023/07/15 03:45:10;;;;;;;7.73;6.97;;;27.20;47.90;;;;;;5044945;28;20453;-77
2023/07/15 03:47:38;;;;;;;8.17;7.40;;;27.20;47.80;;;;;;5039809;28;20512;-77
2023/07/15 03:50:07;;;;;;;9.90;7.20;;;27.20;47.80;;;;;;5045352;28;20425;-77
2023/07/15 03:52:35;;;;;;;8.53;7.13;;;27.20;47.90;;;;;;5041235;28;20506;-77
2023/07/15 03:55:05;;;;;;;9.60;7.13;;;27.20;47.70;;;;;;5031746;28;20414;-77
2023/07/15 03:57:33;;;;;;;9.60;7.20;;;27.20;47.90;;;;;;5033523;28;20509;-77
2023/07/15 04:00:06;;;;;;;7.47;6.40;;;27.20;47.80;;;;;;5043217;28;20437;-77
2023/07/15 04:02:34;;;;;;;7.53;6.60;;;27.20;47.70;;;;;;5043610;28;20405;-77
2023/07/15 04:05:02;;;;;;;7.33;6.60;;;27.20;47.70;;;;;;5045297;28;20433;-77
2023/07/15 04:07:30;;;;;;;7.00;6.30;;;27.20;47.70;;;;;;5042873;28;20472;-76
2023/07/15 04:09:58;;;;;;;8.10;6.10;;;27.20;47.60;;;;;;5046911;28;20518;-77
2023/07/15 04:12:26;;;;;;;8.20;6.40;;;27.20;47.60;;;;;;5033305;28;20473;-77
2023/07/15 04:14:53;;;;;;;6.10;5.50;;;27.20;47.50;;;;;;5039311;28;20451;-77
2023/07/15 04:17:23;;;;;;;6.40;5.80;;;27.20;47.50;;;;;;5031680;28;20938;-77
2023/07/15 04:19:51;;;;;;;6.87;6.17;;;27.20;47.40;;;;;;5046969;28;20414;-78
2023/07/15 04:22:19;;;;;;;6.20;5.60;;;27.20;47.50;;;;;;5034605;28;20455;-77
2023/07/15 04:24:47;;;;;;;6.63;5.27;;;27.20;47.50;;;;;;5030613;28;20406;-78
2023/07/15 04:27:15;;;;;;;6.00;5.40;;;27.20;47.30;;;;;;5037477;28;20503;-77
2023/07/15 04:29:42;;;;;;;5.40;4.90;;;27.20;47.30;;;;;;5031405;28;20418;-77
2023/07/15 04:32:10;;;;;;;6.50;5.70;;;27.20;47.40;;;;;;5031008;28;20526;-78
2023/07/15 04:34:39;;;;;;;7.37;5.80;;;27.20;47.40;;;;;;5042686;28;20503;-77
2023/07/15 04:37:07;;;;;;;5.57;4.77;;;27.20;47.20;;;;;;5030954;28;20510;-76
2023/07/15 04:39:35;;;;;;;5.83;5.23;;;27.30;47.20;;;;;;5041114;28;20483;-77
2023/07/15 04:42:03;;;;;;;5.57;5.07;;;27.30;47.20;;;;;;5050169;28;20431;-77
2023/07/15 04:44:31;;;;;;;5.77;5.17;;;27.30;47.00;;;;;;5050956;28;20492;-76
2023/07/15 04:46:59;;;;;;;6.03;4.87;;;27.20;47.20;;;;;;5050728;28;20456;-77
2023/07/15 04:49:27;;;;;;;5.13;4.67;;;27.20;47.10;;;;;;5050697;28;20438;-77
2023/07/15 04:51:56;;;;;;;5.10;4.70;;;27.30;47.10;;;;;;5043393;28;20474;-77
2023/07/15 04:54:25;;;;;;;4.90;4.50;;;27.30;47.10;;;;;;5043473;28;20468;-77
2023/07/15 04:56:53;;;;;;;4.93;4.53;;;27.30;47.00;;;;;;5041553;28;20494;-77
2023/07/15 04:59:21;;;;;;;5.97;4.60;;;27.30;47.00;;;;;;5052023;28;20425;-77
2023/07/15 05:01:49;;;;;;;4.40;4.10;;;27.30;47.00;;;;;;5036902;28;20574;-77
2023/07/15 05:04:17;;;;;;;4.67;4.30;;;27.30;46.90;;;;;;5037491;28;20455;-77
2023/07/15 05:06:45;;;;;;;4.70;4.10;;;27.30;46.90;;;;;;5044763;28;20532;-77
2023/07/15 05:09:14;;;;;;;5.20;4.37;;;27.30;46.90;;;;;;5049934;28;20477;-77
2023/07/15 05:11:43;;;;;;;4.90;4.50;;;27.30;46.90;;;;;;5045095;28;20542;-77
2023/07/15 05:14:11;;;;;;;6.67;4.73;;;27.30;46.80;;;;;;5051756;28;20546;-78
2023/07/15 05:16:43;;;;;;;5.03;4.17;;;27.40;47.00;;;;;;5055288;28;21044;-77
2023/07/15 05:19:11;;;;;;;4.23;3.93;;;27.40;46.80;;;;;;5056999;28;20434;-76
2023/07/15 05:21:39;;;;;;;4.27;3.97;;;27.40;46.80;;;;;;5058131;28;20492;-76
2023/07/15 05:24:07;;;;;;;4.10;3.80;;;27.40;46.80;;;;;;5058642;28;20424;-75
2023/07/15 05:26:37;;;;;;;7.47;3.93;;;27.40;46.60;;;;;;5059813;28;20448;-76
2023/07/15 05:29:07;;;;;;;4.73;4.40;;;27.40;46.70;;;;;;5050192;28;20549;-76
2023/07/15 05:31:35;;;;;;;4.50;4.07;;;27.50;46.80;;;;;;5057020;28;20441;-76
2023/07/15 05:34:04;;;;;;;4.10;3.80;;;27.50;46.80;;;;;;5057099;28;20806;-76
2023/07/15 05:36:32;;;;;;;5.10;3.80;;;27.50;46.70;;;;;;5057367;28;20544;-76
2023/07/15 05:39:00;;;;;;;3.87;3.63;;;27.50;46.70;;;;;;5057367;28;20474;-76
2023/07/15 05:41:28;;;;;;;4.07;3.70;;;27.50;46.70;;;;;;5057180;28;20476;-77
2023/07/15 05:43:57;;;;;;;3.60;3.40;;;27.50;46.70;;;;;;5049016;28;20882;-77
2023/07/15 05:46:26;;;;;;;4.27;3.83;;;27.50;46.70;;;;;;5043311;28;20483;-78
2023/07/15 05:48:54;;;;;;;4.00;3.63;;;27.50;46.60;;;;;;5057697;28;20450;-77
2023/07/15 05:51:22;;;;;;;3.40;3.20;;;27.60;46.70;;;;;;5053625;28;20458;-77
2023/07/15 05:53:50;;;;;;;4.13;3.83;;;27.60;46.60;;;;;;5052191;28;20552;-76
2023/07/15 05:56:18;;;;;;;5.03;3.80;;;27.60;46.60;;;;;;5043736;28;20470;-77
2023/07/15 05:58:46;;;;;;;4.03;3.73;;;27.60;46.50;;;;;;5049492;28;20435;-77
2023/07/15 06:01:15;;;;;;;5.07;3.40;;;27.70;47.30;;;;;;5052005;28;20475;-77
2023/07/15 06:03:44;;;;;;;4.50;3.07;;;27.70;46.60;;;;;;5048229;28;20448;-77
2023/07/15 06:06:13;;;;;;;4.53;3.60;;;27.70;46.60;;;;;;5044215;28;20537;-76
2023/07/15 06:08:42;;;;;;;3.57;3.27;;;27.70;46.60;;;;;;5044489;28;20450;-77
2023/07/15 06:11:10;;;;;;;3.77;3.33;;;27.70;46.40;;;;;;5043020;28;20496;-75
2023/07/15 06:13:38;;;;;;;3.67;3.40;;;27.80;46.60;;;;;;5046436;28;20456;-76
2023/07/15 06:16:06;;;;;;;3.50;3.30;;;27.80;46.70;;;;;;5041567;28;20491;-76
2023/07/15 06:18:36;;;;;;;3.87;3.57;;;27.80;46.60;;;;;;5034771;28;20482;-78
2023/07/15 06:21:04;;;;;;;3.73;3.13;;;27.90;47.20;;;;;;5042677;28;20485;-76
2023/07/15 06:23:32;;;;;;;3.93;3.63;;;27.90;46.50;;;;;;5054100;28;20911;-76
2023/07/15 06:25:59;;;;;;;3.40;3.20;;;28.00;46.40;;;;;;5046148;28;20540;-76
2023/07/15 06:28:27;;;;;;;3.53;3.30;;;28.00;46.30;;;;;;5054337;28;20894;-76
2023/07/15 06:31:01;;;;;;;4.13;3.53;;;28.10;46.30;;;;;;5054657;28;20546;-77
2023/07/15 06:33:29;;;;;;;3.80;2.77;;;28.10;46.20;;;;;;5054319;28;20462;-76
2023/07/15 06:35:58;;;;;;;4.20;3.20;;;28.10;46.10;;;;;;5054413;28;20477;-77
2023/07/15 06:38:27;;;;;;;3.67;3.37;;;28.20;46.20;;;;;;5054637;28;20409;-77
2023/07/15 06:40:55;;;;;;;2.97;2.80;;;28.20;46.70;;;;;;5054148;28;20439;-76
2023/07/15 06:43:23;;;;;;;3.30;2.97;;;28.20;46.00;;;;;;5044650;28;20927;-77
2023/07/15 06:45:51;;;;;;;3.07;2.97;;;28.30;46.10;;;;;;5034465;28;20450;-77
2023/07/15 06:48:20;;;;;;;2.90;2.70;;;28.30;46.00;;;;;;5034414;28;20478;-77
2023/07/15 06:50:48;;;;;;;3.00;2.80;;;28.40;46.10;;;;;;5035943;28;20543;-76
2023/07/15 06:53:17;;;;;;;3.13;2.83;;;28.50;46.00;;;;;;5045754;28;20498;-75
2023/07/15 06:55:45;;;;;;;2.87;2.73;;;28.40;46.00;;;;;;5052426;28;20451;-76
2023/07/15 06:58:13;;;;;;;2.90;2.70;;;28.50;46.00;;;;;;5046906;28;20434;-77
2023/07/15 07:00:40;;;;;;;4.37;2.67;;;28.50;45.90;;;;;;5047757;28;20541;-76
2023/07/15 07:03:08;;;;;;;3.00;2.80;;;28.60;46.00;;;;;;5046518;28;20462;-77
2023/07/15 07:05:36;;;;;;;3.10;2.90;;;28.70;45.90;;;;;;5037351;28;20530;-76
2023/07/15 07:08:04;;;;;;;3.00;2.70;;;28.70;45.80;;;;;;5043165;28;20526;-77
2023/07/15 07:10:33;;;;;;;2.80;2.70;;;28.70;45.90;;;;;;5054106;28;20533;-77
2023/07/15 07:13:01;;;;;;;3.03;2.83;;;28.80;45.80;;;;;;5053743;28;20489;-77
2023/07/15 07:15:29;;;;;;;3.10;2.60;;;28.90;45.80;;;;;;5053470;28;20498;-77
2023/07/15 07:17:57;;;;;;;2.87;2.70;;;28.90;45.80;;;;;;5046760;28;20454;-77
2023/07/15 07:20:26;;;;;;;4.87;2.63;;;29.00;45.80;;;;;;5053431;28;20546;-76
2023/07/15 07:22:53;;;;;;;2.90;2.70;;;29.10;45.80;;;;;;5052388;28;20471;-76
2023/07/15 07:25:21;;;;;;;3.03;2.73;;;29.10;45.70;;;;;;5053715;28;20443;-76
2023/07/15 07:27:51;;;;;;;2.97;2.77;;;29.20;45.70;;;;;;5053614;28;20487;-76
2023/07/15 07:30:19;;;;;;;2.13;2.03;;;29.20;45.60;;;;;;5053574;28;20454;-76
2023/07/15 07:32:48;;;;;;;2.93;2.73;;;29.40;45.70;;;;;;5053127;28;20484;-77
2023/07/15 07:35:17;;;;;;;3.00;2.80;;;29.40;45.60;;;;;;5049784;28;20478;-76
2023/07/15 07:37:44;;;;;;;3.73;2.70;;;29.50;45.50;;;;;;5038803;28;20467;-78
2023/07/15 07:40:13;;;;;;;3.20;2.70;;;29.60;45.50;;;;;;5043805;28;20505;-77
2023/07/15 07:42:41;;;;;;;2.60;2.50;;;29.70;45.30;;;;;;5046493;28;20506;-77
2023/07/15 07:45:17;;;;;;;3.33;2.80;;;29.80;45.30;;;;;;5046540;28;20443;-77
2023/07/15 07:47:45;;;;;;;2.20;2.10;;;29.90;45.30;;;;;;5040149;28;20445;-77
2023/07/15 07:50:13;;;;;;;2.30;2.17;;;29.90;45.20;;;;;;5049631;28;20431;-78
2023/07/15 07:52:41;;;;;;;3.17;2.53;;;30.10;45.20;;;;;;5038132;28;21065;-80
2023/07/15 07:55:09;;;;;;;3.33;2.73;;;30.10;45.10;;;;;;5033883;28;20510;-77
2023/07/15 07:57:37;;;;;;;2.90;2.60;;;30.30;45.00;;;;;;5053163;28;20895;-80
2023/07/15 08:00:07;;;;;;;2.83;2.73;;;30.40;45.00;;;;;;5052615;28;20445;-80
2023/07/15 08:02:36;;;;;;;2.33;2.20;;;30.50;44.90;;;;;;5037640;28;20493;-79
2023/07/15 08:05:04;;;;;;;2.57;2.37;;;30.60;44.90;;;;;;5033024;28;20515;-78
2023/07/15 08:07:32;;;;;;;4.30;2.50;;;30.70;44.70;;;;;;5039714;28;20502;-77
2023/07/15 08:10:00;;;;;;;2.77;2.67;;;30.90;44.80;;;;;;5043999;28;20490;-76
2023/07/15 08:12:28;;;;;;;2.30;2.20;;;30.90;44.70;;;;;;5040978;28;20862;-77
2023/07/15 08:14:56;;;;;;;2.50;2.30;;;31.00;44.50;;;;;;5041504;28;20494;-77
2023/07/15 08:17:23;;;;;;;2.77;2.17;;;31.20;44.70;;;;;;5049694;28;20541;-77
2023/07/15 08:19:53;;;;;;;2.20;2.10;;;31.30;44.60;;;;;;5052421;28;20481;-77
2023/07/15 08:22:21;;;;;;;2.47;2.37;;;31.30;44.40;;;;;;5052605;28;20529;-77
2023/07/15 08:24:49;;;;;;;2.27;2.10;;;31.50;44.40;;;;;;5052446;28;20869;-76
2023/07/15 08:27:17;;;;;;;2.43;2.33;;;31.60;44.50;;;;;;5046809;28;20466;-79
2023/07/15 08:29:45;;;;;;;2.67;2.50;;;31.70;44.40;;;;;;5050130;28;20446;-78
2023/07/15 08:32:14;;;;;;;2.83;2.40;;;31.80;44.30;;;;;;5037516;28;20487;-79
2023/07/15 08:37:34;;;;;;;6.47;2.53;;;32.00;44.30;;;;;;5082365;27;1202201;-76
2023/07/15 08:40:02;;;;;;;6.17;2.90;;;31.80;43.30;;;;;;5112093;28;20992;-78
2023/07/15 08:42:30;;;;;;;3.80;2.50;;;31.90;42.90;;;;;;5115098;28;20532;-76
2023/07/15 08:44:59;;;;;;;4.07;2.70;;;31.80;42.10;;;;;;5109410;28;20495;-77
2023/07/15 08:47:27;;;;;;;2.77;2.57;;;31.90;41.50;;;;;;5108994;28;20527;-77
2023/07/15 08:49:55;;;;;;;3.50;2.67;;;31.80;41.30;;;;;;5110843;28;20500;-76
2023/07/15 08:52:24;;;;;;;8.77;2.47;;;31.80;41.00;;;;;;5109722;28;20452;-77
2023/07/15 08:54:53;;;;;;;4.07;2.50;;;31.70;40.90;;;;;;5113262;28;20540;-78
2023/07/15 08:57:22;;;;;;;3.60;2.60;;;31.80;41.30;;;;;;5104593;28;20518;-77
2023/07/15 08:59:52;;;;;;;2.73;2.43;;;31.80;40.80;;;;;;5111069;28;20460;-78
2023/07/15 09:02:20;;;;;;;3.53;2.50;;;32.00;41.10;;;;;;5108938;28;20868;-77
2023/07/15 09:04:48;;;;;;;2.60;2.40;;;32.20;41.00;;;;;;5108233;28;20452;-77
2023/07/15 09:07:16;;;;;;;7.80;2.30;;;32.40;41.10;;;;;;5107592;28;20469;-78
2023/07/15 09:09:45;;;;;;;10.10;2.10;;;32.50;41.20;;;;;;5106283;28;20483;-78
2023/07/15 09:12:14;;;;;;;2.97;2.70;;;32.50;40.30;;;;;;5108696;28;20441;-78
2023/07/15 09:14:42;;;;;;;2.87;2.13;;;32.50;40.60;;;;;;5113412;28;20441;-78
2023/07/15 09:17:21;;;;;;;4.77;2.37;;;32.60;40.20;;;;;;5110224;28;20475;-78
2023/07/15 09:19:49;;;;;;;6.93;2.57;;;32.60;40.10;;;;;;5112641;28;20504;-78
2023/07/15 09:22:18;;;;;;;3.03;2.70;;;32.80;40.00;;;;;;5105905;28;20444;-77
2023/07/15 09:24:47;;;;;;;2.30;2.20;;;33.00;40.00;;;;;;5107839;28;20448;-78
2023/07/15 09:27:16;;;;;;;4.40;2.60;;;33.00;39.60;;;;;;5112867;28;20827;-78
2023/07/15 09:29:45;;;;;;;7.23;2.60;;;33.00;39.20;;;;;;5110788;28;20448;-78
2023/07/15 09:32:14;;;;;;;2.30;2.10;;;33.10;39.00;;;;;;5104525;28;20540;-78
2023/07/15 09:34:43;;;;;;;3.00;2.57;;;33.20;39.10;;;;;;5111659;28;20447;-79
2023/07/15 09:37:11;;;;;;;2.20;2.00;;;33.10;38.80;;;;;;5111647;28;20522;-78
2023/07/15 09:39:39;;;;;;;2.70;2.50;;;33.10;39.00;;;;;;5112744;28;20520;-78
2023/07/15 09:42:08;;;;;;;2.40;2.20;;;33.30;39.50;;;;;;5108285;28;20448;-78
2023/07/15 09:44:39;;;;;;;7.33;2.17;;;33.50;39.30;;;;;;5107209;28;20514;-77
2023/07/15 09:47:07;;;;;;;3.87;2.10;;;33.50;38.80;;;;;;5109521;28;20496;-77
2023/07/15 09:49:35;;;;;;;4.50;2.07;;;33.50;38.10;;;;;;5093859;28;20482;-77
2023/07/15 09:52:04;;;;;;;7.20;2.10;;;33.60;38.10;;;;;;5088824;28;20474;-79
2023/07/15 09:54:33;;;;;;;2.50;2.20;;;33.60;37.80;;;;;;5095214;28;20447;-77
2023/07/15 09:57:01;;;;;;;2.63;2.40;;;33.60;37.70;;;;;;5094058;28;20523;-76
2023/07/15 09:59:35;;;;;;;10.90;2.13;;;33.40;37.90;;;;;;5094339;28;20537;-76
2023/07/15 10:02:06;;;;;;;4.87;3.33;;;33.30;38.00;;;;;;5099713;28;20543;-76
2023/07/15 10:04:35;;;;;;;7.27;2.80;;;33.40;38.50;;;;;;5097825;28;20484;-76
2023/07/15 10:07:04;;;;;;;5.00;2.90;;;33.50;38.70;;;;;;5096877;28;20464;-76
2023/07/15 10:09:32;;;;;;;2.60;2.40;;;33.60;38.50;;;;;;5092348;28;20627;-77
2023/07/15 10:12:00;;;;;;;7.23;2.30;;;33.70;39.00;;;;;;5086354;28;20518;-77
2023/07/15 10:14:31;;;;;;;6.30;2.60;;;34.00;38.80;;;;;;5087349;28;20449;-77
2023/07/15 10:17:10;;;;;;;2.03;1.93;;;34.10;38.00;;;;;;5087215;28;20473;-77
2023/07/15 10:19:42;;;;;;;2.30;2.10;;;34.20;38.20;;;;;;5086880;28;20539;-77
2023/07/15 10:22:10;;;;;;;2.30;1.80;;;34.20;38.00;;;;;;5088881;28;20443;-77
2023/07/15 10:24:37;;;;;;;1.90;1.70;;;34.20;38.00;;;;;;5088705;28;20453;-76
2023/07/15 10:27:08;;;;;;;2.40;2.20;;;34.30;38.00;;;;;;5087194;28;20548;-76
2023/07/15 10:29:37;;;;;;;2.30;2.20;;;34.20;37.90;;;;;;5091467;28;20460;-78
2023/07/15 10:32:11;;;;;;;4.10;2.40;;;34.10;38.30;;;;;;5090212;28;20484;-77
2023/07/15 10:34:40;;;;;;;2.43;1.80;;;34.40;37.70;;;;;;5092222;28;20452;-78
2023/07/15 10:37:10;;;;;;;4.90;1.90;;;34.50;37.60;;;;;;5088955;28;20573;-78
2023/07/15 10:39:38;;;;;;;2.30;1.90;;;34.80;37.70;;;;;;5087375;28;20488;-77
2023/07/15 10:42:10;;;;;;;3.20;2.13;;;35.00;37.10;;;;;;5091699;28;20476;-76
2023/07/15 10:44:44;;;;;;;3.33;2.10;;;35.00;36.90;;;;;;5091604;28;20611;-77
2023/07/15 10:47:15;;;;;;;5.23;2.00;;;35.20;37.20;;;;;;5083359;28;20484;-77
2023/07/15 10:49:43;;;;;;;2.67;2.40;;;35.10;36.90;;;;;;5086914;28;20501;-77
2023/07/15 10:52:12;;;;;;;4.00;2.40;;;34.90;37.00;;;;;;5081124;28;20489;-76
2023/07/15 10:54:40;;;;;;;2.80;2.60;;;34.80;37.40;;;;;;5089333;28;20915;-76
2023/07/15 10:57:10;;;;;;;4.40;2.80;;;34.70;37.50;;;;;;5089768;28;20967;-76
2023/07/15 10:59:39;;;;;;;2.43;2.33;;;34.60;37.70;;;;;;5083340;28;20497;-76
2023/07/15 11:02:07;;;;;;;2.17;2.07;;;34.60;37.90;;;;;;5083139;28;20469;-76
2023/07/15 11:04:36;;;;;;;5.60;2.27;;;34.70;38.10;;;;;;5091592;28;20535;-77
2023/07/15 11:07:06;;;;;;;4.73;1.90;;;34.70;38.20;;;;;;5089883;28;20471;-77
2023/07/15 11:09:37;;;;;;;2.43;1.70;;;34.70;38.10;;;;;;5086702;28;20460;-76
2023/07/15 11:12:06;;;;;;;2.60;1.80;;;34.90;38.20;;;;;;5086138;28;20455;-76
2023/07/15 11:14:38;;;;;;;3.37;2.10;;;35.10;38.10;;;;;;5080925;28;20445;-76
2023/07/15 11:17:07;;;;;;;4.40;2.50;;;35.00;37.80;;;;;;5091150;28;20500;-76
2023/07/15 11:19:37;;;;;;;4.30;1.83;;;35.00;38.10;;;;;;5091018;28;20452;-76
2023/07/15 11:22:07;;;;;;;2.70;2.27;;;34.90;38.30;;;;;;5084774;28;20425;-77
2023/07/15 11:24:35;;;;;;;4.30;2.20;;;34.90;38.10;;;;;;5081071;28;20464;-76
2023/07/15 11:27:04;;;;;;;6.50;2.20;;;34.90;38.50;;;;;;5080969;28;20489;-76
2023/07/15 11:29:31;;;;;;;4.10;2.30;;;34.70;38.80;;;;;;5077533;28;20540;-76
2023/07/15 11:32:01;;;;;;;2.20;2.03;;;34.80;39.00;;;;;;5071757;28;20438;-76
2023/07/15 11:34:29;;;;;;;5.90;2.00;;;34.60;39.30;;;;;;5087646;28;20442;-76
2023/07/15 11:37:02;;;;;;;4.70;2.20;;;34.60;39.00;;;;;;5083359;28;20526;-77
2023/07/15 11:39:30;;;;;;;2.63;2.43;;;34.40;39.30;;;;;;5084149;28;20438;-77
2023/07/15 11:41:58;;;;;;;2.20;2.00;;;34.40;39.60;;;;;;5078139;28;20549;-77
2023/07/15 11:44:26;;;;;;;2.20;1.93;;;34.40;39.90;;;;;;5082795;28;20525;-77
2023/07/15 11:46:55;;;;;;;9.03;2.83;;;34.30;39.70;;;;;;5080079;28;20475;-77
2023/07/15 11:49:23;;;;;;;2.87;2.67;;;34.20;39.60;;;;;;5092104;28;20453;-77
2023/07/15 11:51:55;;;;;;;3.30;2.60;;;34.20;40.00;;;;;;5095880;28;20470;-78
2023/07/15 11:54:25;;;;;;;5.80;2.10;;;34.00;40.30;;;;;;5082755;28;20498;-77
2023/07/15 11:56:53;;;;;;;2.33;1.90;;;33.80;40.40;;;;;;5086570;28;20465;-77
2023/07/15 11:59:27;;;;;;;4.30;1.97;;;33.80;40.40;;;;;;5078020;28;20445;-77
2023/07/15 12:01:57;;;;;;;1.90;1.80;;;33.60;40.70;;;;;;5079815;28;20441;-77
2023/07/15 12:04:27;;;;;;;3.80;2.17;;;33.40;40.50;;;;;;5084239;28;20465;-77
2023/07/15 12:06:55;;;;;;;1.77;1.67;;;33.40;40.80;;;;;;5082737;28;20522;-77
2023/07/15 12:09:25;;;;;;;1.90;1.80;;;33.60;40.60;;;;;;5081995;28;20480;-76
2023/07/15 12:11:53;;;;;;;1.93;1.70;;;33.90;40.80;;;;;;5089336;28;20832;-76
2023/07/15 12:14:21;;;;;;;7.27;1.70;;;34.20;40.30;;;;;;5074108;28;20449;-76
2023/07/15 12:16:53;;;;;;;1.80;1.50;;;34.30;40.00;;;;;;5080399;28;20487;-76
2023/07/15 12:19:23;;;;;;;5.97;1.67;;;34.50;40.10;;;;;;5088655;28;20468;-76
2023/07/15 12:21:51;;;;;;;1.30;1.30;;;34.70;39.90;;;;;;5075998;28;20453;-77
2023/07/15 12:24:19;;;;;;;1.50;1.50;;;34.70;39.60;;;;;;5081914;28;20497;-77
2023/07/15 12:26:48;;;;;;;2.00;1.50;;;34.80;39.50;;;;;;5089997;28;20467;-77
2023/07/15 12:29:16;;;;;;;1.70;1.60;;;34.70;39.50;;;;;;5082816;28;20505;-78
2023/07/15 12:31:44;;;;;;;2.10;1.83;;;34.60;40.10;;;;;;5092610;28;20460;-77
2023/07/15 12:34:12;;;;;;;1.93;1.83;;;34.40;39.40;;;;;;5086546;28;20952;-77
2023/07/15 12:36:40;;;;;;;2.63;1.70;;;34.40;39.60;;;;;;5088110;28;20530;-77
2023/07/15 12:39:08;;;;;;;1.50;1.40;;;34.30;39.60;;;;;;5093263;28;20470;-76
2023/07/15 12:41:35;;;;;;;2.60;1.70;;;34.20;40.00;;;;;;5084309;28;20437;-77
2023/07/15 12:44:05;;;;;;;3.03;1.80;;;34.00;40.10;;;;;;5089951;28;20524;-77
2023/07/15 12:46:33;;;;;;;3.27;1.47;;;34.00;40.20;;;;;;5084503;28;20495;-78
2023/07/15 12:49:01;;;;;;;3.43;1.80;;;33.90;40.60;;;;;;5081297;28;20437;-77
2023/07/15 12:51:29;;;;;;;1.73;1.70;;;34.00;40.40;;;;;;5082860;28;20451;-78
2023/07/15 12:53:57;;;;;;;10.50;2.20;;;34.00;40.50;;;;;;5096560;28;20509;-79